createdAt,value
2023-05-25T00:01:01.745Z,72.63
2023-05-25T00:06:05.637Z,72.17
2023-05-25T00:11:07.400Z,72.27
2023-05-25T00:16:09.206Z,73.13
2023-05-25T00:21:11.887Z,72.94
2023-05-25T00:26:14.091Z,72.42
2023-05-25T00:31:15.908Z,72.67
2023-05-25T00:36:18.094Z,73.09
2023-05-25T00:41:20.926Z,73.57
2023-05-25T00:46:23.647Z,73.55
2023-05-25T00:51:27.153Z,73.70
2023-05-25T00:56:32.550Z,73.39
2023-05-25T01:01:40.731Z,73.22
2023-05-25T01:06:47.936Z,73.08
2023-05-25T01:11:51.610Z,73.17
2023-05-25T01:16:55.222Z,73.25
2023-05-25T01:22:20.098Z,72.79
2023-05-25T01:27:30.709Z,72.44
2023-05-25T01:32:35.323Z,72.57
2023-05-25T01:37:39.707Z,72.30
2023-05-25T01:42:42.352Z,72.27
2023-05-25T01:48:16.030Z,72.37
2023-05-25T01:53:36.829Z,72.29
2023-05-25T01:58:50.783Z,71.94
2023-05-25T02:03:53.294Z,72.07
2023-05-25T02:08:55.120Z,71.58
2023-05-25T02:13:56.936Z,71.48
2023-05-25T02:18:58.718Z,71.35
2023-05-25T02:24:00.723Z,72.07
2023-05-25T02:29:03.396Z,72.47
2023-05-25T02:34:05.174Z,72.93
2023-05-25T02:39:06.980Z,73.34
2023-05-25T02:44:08.861Z,73.57
2023-05-25T02:49:10.817Z,73.51
2023-05-25T02:54:12.907Z,73.28
2023-05-25T02:59:14.797Z,73.39
2023-05-25T03:04:16.657Z,73.32
2023-05-25T03:09:18.543Z,73.19
2023-05-25T03:14:22.793Z,73.35
2023-05-25T03:19:32.352Z,73.33
2023-05-25T03:24:34.597Z,73.14
2023-05-25T03:29:38.400Z,73.07
2023-05-25T03:34:40.854Z,72.82
2023-05-25T03:39:44.844Z,72.62
2023-05-25T03:44:46.723Z,72.55
2023-05-25T03:49:48.544Z,72.70
2023-05-25T03:54:50.629Z,72.36
2023-05-25T03:59:52.361Z,72.26
2023-05-25T04:04:54.285Z,72.29
2023-05-25T04:09:59.517Z,72.68
2023-05-25T04:15:03.567Z,72.21
2023-05-25T04:20:09.031Z,72.07
2023-05-25T04:25:11.618Z,72.27
2023-05-25T04:30:13.618Z,72.17
2023-05-25T04:35:26.832Z,72.35
2023-05-25T04:40:28.930Z,72.50
2023-05-25T04:45:33.200Z,72.76
2023-05-25T04:50:37.575Z,72.95
2023-05-25T04:55:40.056Z,72.57
2023-05-25T05:00:42.261Z,72.74
2023-05-25T05:05:45.253Z,72.22
2023-05-25T05:10:52.202Z,72.61
2023-05-25T05:15:54.128Z,72.56
2023-05-25T05:20:56.684Z,72.59
2023-05-25T05:25:59.495Z,72.55
2023-05-25T05:31:01.654Z,72.76
2023-05-25T05:36:04.795Z,71.75
2023-05-25T05:41:13.488Z,72.16
2023-05-25T05:46:16.805Z,72.44
2023-05-25T05:51:18.983Z,72.26
2023-05-25T05:56:21.775Z,71.64
2023-05-25T06:01:24.052Z,71.23
2023-05-25T06:06:27.571Z,71.00
2023-05-25T06:11:31.662Z,71.09
2023-05-25T06:16:33.825Z,69.52
2023-05-25T06:21:36.970Z,70.39
2023-05-25T06:26:38.655Z,68.79
2023-05-25T06:31:40.638Z,67.41
2023-05-25T06:36:42.524Z,68.46
2023-05-25T06:41:45.272Z,68.08
2023-05-25T06:46:51.052Z,66.28
2023-05-25T06:51:52.779Z,66.62
2023-05-25T06:56:54.743Z,68.23
2023-05-25T07:01:56.581Z,67.56
2023-05-25T07:06:58.645Z,66.67
2023-05-25T07:12:01.143Z,67.25
2023-05-25T07:17:03.026Z,67.04
2023-05-25T07:22:05.358Z,67.07
2023-05-25T07:27:08.207Z,66.40
2023-05-25T07:32:09.889Z,66.97
2023-05-25T07:37:11.763Z,67.16
2023-05-25T07:42:14.019Z,66.15
2023-05-25T07:47:16.137Z,66.42
2023-05-25T07:52:18.992Z,66.92
2023-05-25T07:57:20.875Z,65.62
2023-05-25T08:02:22.982Z,66.03
2023-05-25T08:07:25.572Z,65.87
2023-05-25T08:12:43.031Z,66.09
2023-05-25T08:17:50.977Z,65.77
2023-05-25T08:22:53.718Z,66.69
2023-05-25T08:27:56.022Z,64.47
2023-05-25T08:32:57.775Z,66.29
2023-05-25T08:37:59.513Z,64.92
2023-05-25T08:43:01.579Z,65.02
2023-05-25T08:48:09.477Z,64.03
2023-05-25T08:53:13.538Z,65.24
2023-05-25T08:58:22.151Z,64.23
2023-05-25T09:03:24.700Z,64.13
2023-05-25T09:08:27.274Z,64.89
2023-05-25T09:13:29.446Z,62.76
2023-05-25T09:18:31.320Z,62.25
2023-05-25T09:23:35.500Z,63.41
2023-05-25T09:28:45.674Z,61.16
2023-05-25T09:33:47.605Z,62.88
2023-05-25T09:38:49.704Z,61.60
2023-05-25T09:44:02.040Z,60.61
2023-05-25T09:49:09.324Z,61.16
2023-05-25T09:54:11.500Z,61.02
2023-05-25T09:59:13.230Z,61.09
2023-05-25T10:04:16.423Z,62.22
2023-05-25T10:09:19.573Z,62.00
2023-05-25T10:14:28.049Z,61.16
2023-05-25T10:19:57.296Z,60.79
2023-05-25T10:25:14.245Z,59.67
2023-05-25T10:30:17.224Z,60.25
2023-05-25T10:35:19.347Z,59.04
2023-05-25T10:40:22.867Z,60.35
2023-05-25T10:45:24.981Z,60.61
2023-05-25T10:50:28.754Z,58.89
2023-05-25T10:55:43.415Z,59.24
2023-05-25T11:01:12.218Z,60.21
2023-05-25T11:06:15.906Z,57.83
2023-05-25T11:11:18.959Z,57.59
2023-05-25T11:16:37.708Z,57.77
2023-05-25T11:21:44.050Z,57.40
2023-05-25T11:26:57.880Z,57.99
2023-05-25T11:32:00.680Z,55.85
2023-05-25T11:37:02.544Z,57.67
2023-05-25T11:42:07.199Z,56.12
2023-05-25T11:47:13.394Z,56.28
2023-05-25T11:52:17.291Z,56.93
2023-05-25T11:57:22.549Z,54.06
2023-05-25T12:02:24.508Z,53.14
2023-05-25T12:07:31.298Z,55.10
2023-05-25T12:12:42.304Z,55.11
2023-05-25T12:17:45.449Z,54.24
2023-05-25T12:22:47.865Z,52.98
2023-05-25T12:27:49.741Z,53.62
2023-05-25T12:33:00.949Z,52.83
2023-05-25T12:38:12.056Z,54.26
2023-05-25T12:43:15.297Z,54.06
2023-05-25T12:48:26.248Z,52.38
2023-05-25T12:53:29.026Z,51.20
2023-05-25T12:58:30.936Z,50.80
2023-05-25T13:03:33.100Z,51.84
2023-05-25T13:08:35.015Z,52.38
2023-05-25T13:13:37.373Z,53.45
2023-05-25T13:18:39.222Z,52.82
2023-05-25T13:23:41.005Z,51.61
2023-05-25T13:28:42.776Z,52.90
2023-05-25T13:33:44.448Z,51.48
2023-05-25T13:38:46.624Z,50.21
2023-05-25T13:43:48.834Z,49.96
2023-05-25T13:48:50.604Z,49.60
2023-05-25T13:53:53.555Z,49.68
2023-05-25T13:58:56.528Z,49.50
2023-05-25T14:03:59.871Z,49.69
2023-05-25T14:09:01.761Z,48.15
2023-05-25T14:14:09.594Z,49.44
2023-05-25T14:19:18.416Z,48.39
2023-05-25T14:24:20.353Z,46.96
2023-05-25T14:29:22.043Z,47.25
2023-05-25T14:34:24.094Z,48.74
2023-05-25T14:39:26.577Z,47.88
2023-05-25T14:44:28.516Z,47.95
2023-05-25T14:49:30.351Z,48.35
2023-05-25T14:54:32.018Z,48.42
2023-05-25T14:59:33.860Z,49.53
2023-05-25T15:04:35.618Z,47.96
2023-05-25T15:09:37.437Z,47.33
2023-05-25T15:14:40.815Z,48.10
2023-05-25T15:19:42.564Z,46.76
2023-05-25T15:24:44.540Z,47.77
2023-05-25T15:29:47.056Z,47.35
2023-05-25T15:34:49.118Z,46.08
2023-05-25T15:39:51.164Z,46.34
2023-05-25T15:44:53.414Z,47.14
2023-05-25T15:49:55.227Z,45.15
2023-05-25T15:54:57.189Z,45.60
2023-05-25T15:59:59.035Z,46.05
2023-05-25T16:05:00.836Z,46.99
2023-05-25T16:10:03.110Z,45.58
2023-05-25T16:15:05.352Z,46.03
2023-05-25T16:20:08.024Z,46.54
2023-05-25T16:25:10.701Z,45.91
2023-05-25T16:30:13.526Z,45.72
2023-05-25T16:35:16.070Z,45.99
2023-05-25T16:40:17.822Z,45.90
2023-05-25T16:45:21.012Z,46.28
2023-05-25T16:50:22.831Z,46.26
2023-05-25T16:55:24.973Z,46.52
2023-05-25T17:00:26.739Z,46.68
2023-05-25T17:05:28.452Z,46.23
2023-05-25T17:10:30.149Z,45.81
2023-05-25T17:15:31.979Z,46.27
2023-05-25T17:20:33.857Z,47.15
2023-05-25T17:25:35.755Z,47.14
2023-05-25T17:30:37.641Z,46.35
2023-05-25T17:35:39.323Z,46.82
2023-05-25T17:40:41.159Z,46.61
2023-05-25T17:45:43.087Z,47.23
2023-05-25T17:50:45.357Z,47.44
2023-05-25T17:55:47.167Z,46.99
2023-05-25T18:00:49.152Z,47.88
2023-05-25T18:05:51.469Z,47.32
2023-05-25T18:10:53.266Z,47.96
2023-05-25T18:15:55.430Z,48.35
2023-05-25T18:20:57.262Z,49.44
2023-05-25T18:25:59.155Z,51.26
2023-05-25T18:31:00.978Z,52.23
2023-05-25T18:36:02.820Z,53.25
2023-05-25T18:41:04.602Z,54.85
2023-05-25T18:46:06.945Z,56.39
2023-05-25T18:51:08.848Z,57.74
2023-05-25T18:56:11.027Z,58.60
2023-05-25T19:01:12.970Z,59.45
2023-05-25T19:06:14.900Z,60.21
2023-05-25T19:11:20.038Z,60.67
2023-05-25T19:16:25.733Z,61.34
2023-05-25T19:21:37.298Z,62.17
2023-05-25T19:26:49.967Z,62.62
2023-05-25T19:31:53.511Z,62.53
2023-05-25T19:37:10.173Z,62.84
2023-05-25T19:42:14.387Z,63.74
2023-05-25T19:47:16.386Z,64.35
2023-05-25T19:52:18.411Z,64.84
2023-05-25T19:57:22.019Z,65.03
2023-05-25T20:02:23.841Z,65.58
2023-05-25T20:07:25.655Z,65.98
2023-05-25T20:12:27.387Z,66.78
2023-05-25T20:17:29.861Z,67.46
2023-05-25T20:22:32.989Z,67.84
2023-05-25T20:27:35.087Z,68.43
2023-05-25T20:32:37.097Z,68.21
2023-05-25T20:37:39.675Z,68.11
2023-05-25T20:42:41.607Z,67.70
2023-05-25T20:47:43.928Z,67.95
2023-05-25T20:52:45.695Z,68.02
2023-05-25T20:57:47.466Z,68.21
2023-05-25T21:02:49.464Z,68.63
2023-05-25T21:07:51.826Z,68.88
2023-05-25T21:12:53.535Z,68.98
2023-05-25T21:17:55.839Z,69.15
2023-05-25T21:22:57.734Z,69.09
2023-05-25T21:27:59.467Z,69.25
2023-05-25T21:33:01.634Z,69.51
2023-05-25T21:38:03.898Z,69.48
2023-05-25T21:43:06.543Z,69.44
2023-05-25T21:48:08.617Z,68.89
2023-05-25T21:53:10.961Z,68.83
2023-05-25T21:58:14.252Z,68.98
2023-05-25T22:03:16.793Z,69.09
2023-05-25T22:08:18.571Z,68.53
2023-05-25T22:13:21.214Z,69.13
2023-05-25T22:18:22.983Z,69.32
2023-05-25T22:23:26.473Z,68.85
2023-05-25T22:28:28.613Z,69.03
2023-05-25T22:33:30.620Z,69.73
2023-05-25T22:38:32.843Z,70.07
2023-05-25T22:43:34.624Z,69.54
2023-05-25T22:48:36.389Z,69.81
2023-05-25T22:53:38.156Z,69.74
2023-05-25T22:58:39.905Z,70.00
2023-05-25T23:03:41.922Z,70.19
2023-05-25T23:08:44.095Z,70.47
2023-05-25T23:13:45.821Z,70.98
2023-05-25T23:18:47.989Z,71.30
2023-05-25T23:23:49.724Z,71.36
2023-05-25T23:28:51.591Z,71.10
2023-05-25T23:33:53.392Z,70.92
2023-05-25T23:38:55.182Z,71.22
2023-05-25T23:43:57.668Z,70.83
2023-05-25T23:48:59.601Z,70.51
2023-05-25T23:54:01.361Z,71.06
2023-05-25T23:59:04.110Z,71.01
